Time;durP1;ratioP1;P1;durP2;ratioP2;P2;SDS_P1;SDS_P2;PMS_P1;PMS_P2;Temp;Humidity;BMP_temperature;BMP_pressure;BME280_temperature;BME280_humidity;BME280_pressure;Samples;Min_cycle;Max_cycle;Signal;HPM_P1;HPM_P2
2023/01/24 00:02:16;;;;;;;;;;;3.70;99.90;;;;;;5089392;28;20357;-77
2023/01/24 00:04:41;;;;;;;;;;;3.60;99.90;;;;;;5092249;28;19915;-77
2023/01/24 00:07:07;;;;;;;;;;;3.70;99.90;;;;;;5091932;28;19912;-78
2023/01/24 00:09:32;;;;;;;;;;;3.60;99.90;;;;;;5095540;28;19919;-78
2023/01/24 00:11:57;;;;;;;;;;;3.70;99.90;;;;;;5090160;28;19916;-77
2023/01/24 00:14:23;;;;;;;;;;;3.60;99.90;;;;;;5079681;28;19916;-78
2023/01/24 00:16:48;;;;;;;;;;;3.60;99.90;;;;;;5079693;28;19930;-78
2023/01/24 00:19:14;;;;;;;;;;;3.60;99.90;;;;;;5080174;28;19915;-78
2023/01/24 00:21:39;;;;;;;;;;;3.60;99.90;;;;;;5079522;28;20357;-78
2023/01/24 00:24:05;;;;;;;;;;;3.70;99.90;;;;;;5079952;28;19913;-77
2023/01/24 00:26:30;;;;;;;;;;;3.70;99.90;;;;;;5078172;28;20343;-77
2023/01/24 00:28:57;;;;;;;;;;;3.70;99.90;;;;;;5078239;28;20357;-78
2023/01/24 00:31:23;;;;;;;;;;;3.60;99.90;;;;;;5078335;28;19957;-78
2023/01/24 00:33:48;;;;;;;;;;;3.60;99.90;;;;;;5080351;28;20351;-78
2023/01/24 00:36:15;;;;;;;;;;;3.70;99.90;;;;;;5080950;28;20045;-78
2023/01/24 00:38:41;;;;;;;;;;;3.70;99.90;;;;;;5083135;28;19969;-79
2023/01/24 00:41:07;;;;;;;;;;;3.70;99.90;;;;;;5082052;28;19912;-78
2023/01/24 00:43:32;;;;;;;;;;;3.70;99.90;;;;;;5079454;28;19935;-78
2023/01/24 00:45:58;;;;;;;;;;;3.70;99.90;;;;;;5080163;28;19915;-79
2023/01/24 00:48:24;;;;;;;;;;;3.70;99.90;;;;;;5080865;28;19908;-78
2023/01/24 00:50:49;;;;;;;;;;;3.70;99.90;;;;;;5082598;28;19908;-78
2023/01/24 00:53:15;;;;;;;;;;;3.70;99.90;;;;;;5084313;28;19927;-78
2023/01/24 00:55:44;;;;;;;;;;;3.60;99.90;;;;;;5085337;28;19909;-78
2023/01/24 00:58:10;;;;;;;;;;;3.60;99.90;;;;;;5078653;28;20246;-79
2023/01/24 01:00:36;;;;;;;;;;;3.60;99.90;;;;;;5078451;28;20023;-78
2023/01/24 01:03:02;;;;;;;;;;;3.60;99.90;;;;;;5078115;28;19974;-78
2023/01/24 01:05:28;;;;;;;;;;;3.70;99.90;;;;;;5077136;28;19909;-79
2023/01/24 01:07:53;;;;;;;;;;;3.70;99.90;;;;;;5076905;28;19908;-79
2023/01/24 01:10:19;;;;;;;;;;;3.70;99.90;;;;;;5077483;28;20300;-78
2023/01/24 01:12:44;;;;;;;;;;;3.70;99.90;;;;;;5079689;28;19959;-78
2023/01/24 01:15:10;;;;;;;;;;;3.70;99.90;;;;;;5080703;28;19920;-78
2023/01/24 01:17:35;;;;;;;;;;;3.70;99.90;;;;;;5094231;28;19977;-77
2023/01/24 01:20:01;;;;;;;;;;;3.70;99.90;;;;;;5094225;28;19947;-78
2023/01/24 01:22:27;;;;;;;;;;;3.70;99.90;;;;;;5092903;28;19955;-78
2023/01/24 01:24:53;;;;;;;;;;;3.70;99.90;;;;;;5075524;28;19920;-78
2023/01/24 01:27:18;;;;;;;;;;;3.70;99.90;;;;;;5075990;28;19958;-77
2023/01/24 01:29:43;;;;;;;;;;;3.70;99.90;;;;;;5093654;28;19912;-78
2023/01/24 01:32:09;;;;;;;;;;;3.60;99.90;;;;;;5093035;28;19956;-78
2023/01/24 01:34:35;;;;;;;;;;;3.70;99.90;;;;;;5083728;28;19932;-78
2023/01/24 01:37:00;;;;;;;;;;;3.60;99.90;;;;;;5086965;28;20289;-77
2023/01/24 01:39:26;;;;;;;;;;;3.50;99.90;;;;;;5097651;28;19908;-78
2023/01/24 01:41:51;;;;;;;;;;;3.60;99.90;;;;;;5094120;28;20376;-78
2023/01/24 01:44:38;;;;;;;;;;;3.60;99.90;;;;;;5092867;28;20256;-78
2023/01/24 01:47:05;;;;;;;;;;;3.60;99.90;;;;;;5077033;28;20300;-78
2023/01/24 01:49:30;;;;;;;;;;;3.70;99.90;;;;;;5076219;28;19958;-78
2023/01/24 01:51:59;;;;;;;;;;;3.70;99.90;;;;;;5078233;28;19912;-77
2023/01/24 01:54:27;;;;;;;;;;;3.60;99.90;;;;;;5076569;28;19918;-78
2023/01/24 01:56:55;;;;;;;;;;;3.60;99.90;;;;;;5078212;28;19962;-78
2023/01/24 01:59:26;;;;;;;;;;;3.60;99.90;;;;;;5079366;28;20266;-78
2023/01/24 02:01:53;;;;;;;;;;;3.60;99.90;;;;;;5078989;28;19908;-78
2023/01/24 02:04:26;;;;;;;;;;;3.70;99.90;;;;;;5083936;28;19909;-77
2023/01/24 02:07:00;;;;;;;;;;;3.70;99.90;;;;;;5092197;28;19945;-78
2023/01/24 02:09:28;;;;;;;;;;;3.70;99.90;;;;;;5091502;28;19975;-78
2023/01/24 02:11:56;;;;;;;;;;;3.70;99.90;;;;;;5091165;28;20425;-78
2023/01/24 02:17:07;;;;;;;;;;;3.70;99.90;;;;;;5059065;28;19999;-78
2023/01/24 02:19:39;;;;;;;;;;;3.60;99.90;;;;;;5058319;28;19913;-78
2023/01/24 02:22:12;;;;;;;;;;;3.60;99.90;;;;;;5065895;28;20384;-77
2023/01/24 02:24:40;;;;;;;;;;;3.60;99.90;;;;;;5073164;28;19917;-78
2023/01/24 02:27:06;;;;;;;;;;;3.60;99.90;;;;;;5092576;23;19990;-75
2023/01/24 02:29:31;;;;;;;;;;;3.60;99.90;;;;;;5036848;28;19909;-75
2023/01/24 02:32:01;;;;;;;;;;;3.60;99.90;;;;;;5036569;28;19935;-75
2023/01/24 02:34:27;;;;;;;;;;;3.50;99.90;;;;;;5053570;28;20003;-75
2023/01/24 02:37:00;;;;;;;;;;;3.50;99.90;;;;;;5050251;28;19974;-75
2023/01/24 02:39:27;;;;;;;;;;;3.60;99.90;;;;;;5016905;28;19909;-75
2023/01/24 02:41:56;;;;;;;;;;;3.60;99.90;;;;;;5016685;28;19913;-74
2023/01/24 02:44:30;;;;;;;;;;;3.60;99.90;;;;;;5036303;28;20007;-74
2023/01/24 02:46:56;;;;;;;;;;;3.70;99.90;;;;;;5054254;28;19936;-74
2023/01/24 02:49:21;;;;;;;;;;;3.70;99.90;;;;;;5036982;28;19908;-74
2023/01/24 02:54:31;;;;;;;;;;;3.70;99.90;;;;;;5054484;28;19931;-74
2023/01/24 02:59:41;;;;;;;;;;;3.70;99.90;;;;;;5054041;28;20011;-75
2023/01/24 03:02:06;;;;;;;;;;;3.70;99.90;;;;;;5035877;28;19948;-74
2023/01/24 03:04:32;;;;;;;;;;;3.60;99.90;;;;;;5053529;28;20317;-74
2023/01/24 03:06:57;;;;;;;;;;;3.70;99.90;;;;;;5036963;28;19962;-74
2023/01/24 03:09:33;;;;;;;;;;;3.60;99.90;;;;;;5053821;28;19913;-74
2023/01/24 03:36:37;;;;;;;;;;;3.50;99.90;;;;;;5057196;28;19976;-74
2023/01/24 03:41:47;;;;;;;;;;;3.60;99.90;;;;;;5057713;28;19931;-75
2023/01/24 03:44:12;;;;;;;;;;;3.60;99.90;;;;;;5056947;28;20369;-74
2023/01/24 03:46:39;;;;;;;;;;;3.60;99.90;;;;;;5039522;28;19909;-74
2023/01/24 03:49:05;;;;;;;;;;;3.70;99.90;;;;;;5039502;28;19917;-75
2023/01/24 03:54:15;;;;;;;;;;;3.60;99.90;;;;;;5037715;28;19952;-75
2023/01/24 03:56:41;;;;;;;;;;;3.50;99.90;;;;;;5019652;28;20363;-75
2023/01/24 03:59:06;;;;;;;;;;;3.50;99.90;;;;;;5036567;28;19919;-74
2023/01/24 04:01:31;;;;;;;;;;;3.50;99.90;;;;;;5019080;28;19948;-74
2023/01/24 04:03:57;;;;;;;;;;;3.50;99.90;;;;;;5019135;28;19910;-75
2023/01/24 04:06:23;;;;;;;;;;;3.60;99.90;;;;;;5045132;28;19920;-74
2023/01/24 04:08:49;;;;;;;;;;;3.60;99.90;;;;;;5056854;28;19955;-74
2023/01/24 04:11:14;;;;;;;;;;;3.60;99.90;;;;;;5057404;28;19909;-75
2023/01/24 04:13:40;;;;;;;;;;;3.60;99.90;;;;;;5057095;28;19976;-75
2023/01/24 04:16:06;;;;;;;;;;;3.50;99.90;;;;;;5038701;28;20069;-74
2023/01/24 04:18:31;;;;;;;;;;;3.50;99.90;;;;;;5056730;28;19913;-75
2023/01/24 04:21:00;;;;;;;;;;;3.40;99.90;;;;;;5056599;28;20372;-74
2023/01/24 04:23:26;;;;;;;;;;;3.40;99.90;;;;;;5057037;28;20322;-75
2023/01/24 04:25:54;;;;;;;;;;;3.40;99.90;;;;;;5038893;28;19909;-74
2023/01/24 04:28:20;;;;;;;;;;;3.40;99.90;;;;;;5040175;28;19963;-75
2023/01/24 04:30:45;;;;;;;;;;;3.40;99.90;;;;;;5057904;28;19967;-75
2023/01/24 04:33:11;;;;;;;;;;;3.50;99.90;;;;;;5038534;28;19908;-75
2023/01/24 04:35:36;;;;;;;;;;;3.50;99.90;;;;;;5054248;28;19947;-74
2023/01/24 04:38:03;;;;;;;;;;;3.50;99.90;;;;;;5066515;28;19913;-74
2023/01/24 04:40:28;;;;;;;;;;;3.50;99.90;;;;;;5056170;28;19909;-76
2023/01/24 04:42:57;;;;;;;;;;;3.50;99.90;;;;;;5038035;28;19991;-74
2023/01/24 04:45:23;;;;;;;;;;;3.50;99.90;;;;;;5056637;28;19909;-74
2023/01/24 04:47:48;;;;;;;;;;;3.60;99.90;;;;;;5038660;28;19974;-75
2023/01/24 04:50:14;;;;;;;;;;;3.60;99.90;;;;;;5056262;28;20440;-74
2023/01/24 04:52:40;;;;;;;;;;;3.60;99.90;;;;;;5037954;28;19915;-74
2023/01/24 04:55:05;;;;;;;;;;;3.70;99.90;;;;;;5038140;28;19915;-75
2023/01/24 04:57:31;;;;;;;;;;;3.70;99.90;;;;;;5038476;28;19913;-74
2023/01/24 04:59:56;;;;;;;;;;;3.70;99.90;;;;;;5038889;28;19913;-74
2023/01/24 05:02:22;;;;;;;;;;;3.70;99.90;;;;;;5039798;28;19984;-75
2023/01/24 05:04:47;;;;;;;;;;;3.70;99.90;;;;;;5058682;28;19916;-75
2023/01/24 05:07:13;;;;;;;;;;;3.60;99.90;;;;;;5056989;28;19920;-75
2023/01/24 05:09:39;;;;;;;;;;;3.60;99.90;;;;;;5056797;28;19966;-74
2023/01/24 05:12:04;;;;;;;;;;;3.60;99.90;;;;;;5056170;28;19916;-75
2023/01/24 05:14:30;;;;;;;;;;;3.50;99.90;;;;;;5056348;28;19909;-75
2023/01/24 05:16:55;;;;;;;;;;;3.40;99.90;;;;;;5055976;28;19913;-74
2023/01/24 05:19:20;;;;;;;;;;;3.50;99.90;;;;;;5055735;28;19915;-74
2023/01/24 05:21:46;;;;;;;;;;;3.50;99.90;;;;;;5037939;28;20005;-75
2023/01/24 05:24:11;;;;;;;;;;;3.60;99.90;;;;;;5037965;28;20047;-74
2023/01/24 05:26:37;;;;;;;;;;;3.60;99.90;;;;;;5037838;28;19921;-75
2023/01/24 05:29:02;;;;;;;;;;;3.50;99.90;;;;;;5042026;28;19909;-75
2023/01/24 05:31:28;;;;;;;;;;;3.50;99.90;;;;;;5017392;28;19909;-73
2023/01/24 05:33:53;;;;;;;;;;;3.50;99.90;;;;;;5035413;28;19917;-73
2023/01/24 05:36:20;;;;;;;;;;;3.50;99.90;;;;;;5035831;28;19909;-73
2023/01/24 05:38:46;;;;;;;;;;;3.50;99.90;;;;;;5035574;28;19920;-73
2023/01/24 05:41:12;;;;;;;;;;;3.50;99.90;;;;;;5051424;28;19909;-73
2023/01/24 05:43:38;;;;;;;;;;;3.50;99.90;;;;;;5018652;28;19997;-73
2023/01/24 05:46:05;;;;;;;;;;;3.50;99.90;;;;;;5035905;28;19956;-73
2023/01/24 05:48:30;;;;;;;;;;;3.50;99.90;;;;;;5018347;28;20278;-73
2023/01/24 05:51:00;;;;;;;;;;;3.50;99.90;;;;;;5035880;28;19916;-73
2023/01/24 05:53:29;;;;;;;;;;;3.50;99.90;;;;;;5018599;28;20361;-72
2023/01/24 05:55:58;;;;;;;;;;;3.50;99.90;;;;;;5035076;28;20016;-72
2023/01/24 05:58:24;;;;;;;;;;;3.50;99.90;;;;;;5042071;28;19932;-71
2023/01/24 06:00:50;;;;;;;;;;;3.50;99.90;;;;;;5055176;28;19915;-70
2023/01/24 06:03:15;;;;;;;;;;;3.60;99.90;;;;;;5038201;28;19909;-72
2023/01/24 06:05:44;;;;;;;;;;;3.60;99.90;;;;;;5055400;28;20365;-72
2023/01/24 06:08:09;;;;;;;;;;;3.60;99.90;;;;;;5038373;28;20411;-72
2023/01/24 06:10:35;;;;;;;;;;;3.50;99.90;;;;;;5056055;28;19909;-72
2023/01/24 06:13:00;;;;;;;;;;;3.50;99.90;;;;;;5036949;28;19961;-70
2023/01/24 06:15:26;;;;;;;;;;;3.60;99.90;;;;;;5053910;28;20341;-72
2023/01/24 06:17:51;;;;;;;;;;;3.60;99.90;;;;;;5037831;28;19936;-73
2023/01/24 06:20:17;;;;;;;;;;;3.60;99.90;;;;;;5042901;28;19909;-73
2023/01/24 06:22:42;;;;;;;;;;;3.60;99.90;;;;;;5042760;28;19909;-70
2023/01/24 06:25:16;;;;;;;;;;;3.60;99.90;;;;;;5026076;28;19909;-70
2023/01/24 06:27:41;;;;;;;;;;;3.60;99.90;;;;;;5036978;28;20008;-69
2023/01/24 06:30:08;;;;;;;;;;;3.70;99.90;;;;;;5054330;28;20006;-72
2023/01/24 06:33:02;;;;;;;;;;;3.70;99.90;;;;;;5056718;28;19947;-72
2023/01/24 06:35:30;;;;;;;;;;;3.60;99.90;;;;;;5036956;28;19908;-71
2023/01/24 06:37:57;;;;;;;;;;;3.60;99.90;;;;;;5054596;28;20078;-72
2023/01/24 06:40:24;;;;;;;;;;;3.60;99.90;;;;;;5036600;28;20353;-72
2023/01/24 06:42:49;;;;;;;;;;;3.70;99.90;;;;;;5054296;28;19916;-72
2023/01/24 06:45:15;;;;;;;;;;;3.70;99.90;;;;;;5054525;28;19908;-72
2023/01/24 06:47:42;;;;;;;;;;;3.60;99.90;;;;;;5055172;28;19908;-72
2023/01/24 06:50:13;;;;;;;;;;;3.70;99.90;;;;;;5056444;28;19955;-72
2023/01/24 06:52:38;;;;;;;;;;;3.70;99.90;;;;;;5056897;28;19909;-72
2023/01/24 06:55:04;;;;;;;;;;;3.60;99.90;;;;;;5038786;28;20059;-73
2023/01/24 06:57:29;;;;;;;;;;;3.60;99.90;;;;;;5057412;28;19912;-72
2023/01/24 06:59:55;;;;;;;;;;;3.60;99.90;;;;;;5039672;28;20380;-74
2023/01/24 07:02:20;;;;;;;;;;;3.60;99.90;;;;;;5057766;28;20272;-71
2023/01/24 07:04:46;;;;;;;;;;;3.60;99.90;;;;;;5039175;28;20246;-71
2023/01/24 07:07:11;;;;;;;;;;;3.60;99.90;;;;;;5056719;28;19955;-71
2023/01/24 07:09:37;;;;;;;;;;;3.60;99.90;;;;;;5077013;28;19908;-72
2023/01/24 07:12:02;;;;;;;;;;;3.60;99.90;;;;;;5057489;28;19952;-71
2023/01/24 07:14:28;;;;;;;;;;;3.60;99.90;;;;;;5064706;28;19948;-71
2023/01/24 07:16:55;;;;;;;;;;;3.60;99.90;;;;;;5061456;28;19913;-73
2023/01/24 07:19:25;;;;;;;;;;;3.70;99.90;;;;;;5042296;28;20265;-72
2023/01/24 07:21:53;;;;;;;;;;;3.70;99.90;;;;;;5069621;28;19916;-73
2023/01/24 07:24:20;;;;;;;;;;;3.60;99.90;;;;;;5068918;28;19931;-72
2023/01/24 07:26:48;;;;;;;;;;;3.70;99.90;;;;;;5051375;28;19916;-72
2023/01/24 07:29:13;;;;;;;;;;;3.60;99.90;;;;;;5060855;28;19913;-72
2023/01/24 07:31:39;;;;;;;;;;;3.60;99.90;;;;;;5041911;28;19996;-72
2023/01/24 07:34:04;;;;;;;;;;;3.60;99.90;;;;;;5040838;28;19909;-73
2023/01/24 07:36:30;;;;;;;;;;;3.70;99.90;;;;;;5040481;28;20258;-72
2023/01/24 07:38:56;;;;;;;;;;;3.60;99.90;;;;;;5039999;28;19935;-72
2023/01/24 07:41:21;;;;;;;;;;;3.60;99.90;;;;;;5039733;28;19909;-71
2023/01/24 07:43:47;;;;;;;;;;;3.70;99.90;;;;;;5039264;28;19913;-72
2023/01/24 07:46:12;;;;;;;;;;;3.70;99.90;;;;;;5039215;28;19908;-71
2023/01/24 07:48:38;;;;;;;;;;;3.60;99.90;;;;;;5039663;28;19915;-72
2023/01/24 07:51:03;;;;;;;;;;;3.60;99.90;;;;;;5057830;28;19962;-71
2023/01/24 07:53:29;;;;;;;;;;;3.60;99.90;;;;;;5057504;28;19908;-72
2023/01/24 07:55:54;;;;;;;;;;;3.70;99.90;;;;;;5039925;28;19958;-72
2023/01/24 07:58:20;;;;;;;;;;;3.70;99.90;;;;;;5056982;28;20245;-69
2023/01/24 08:00:45;;;;;;;;;;;3.60;99.90;;;;;;5039302;28;20003;-72
2023/01/24 08:03:11;;;;;;;;;;;3.60;99.90;;;;;;5057307;28;19909;-71
2023/01/24 08:05:36;;;;;;;;;;;3.70;99.90;;;;;;5057174;28;20272;-71
2023/01/24 08:08:02;;;;;;;;;;;3.70;99.90;;;;;;5057611;28;19917;-72
2023/01/24 08:10:29;;;;;;;;;;;3.60;99.90;;;;;;5039646;28;20008;-72
2023/01/24 08:12:54;;;;;;;;;;;3.70;99.90;;;;;;5039492;28;19941;-72
2023/01/24 08:15:20;;;;;;;;;;;3.70;99.90;;;;;;5057198;28;19908;-71
2023/01/24 08:17:46;;;;;;;;;;;3.70;99.90;;;;;;5056907;28;19931;-72
2023/01/24 08:20:11;;;;;;;;;;;3.60;99.90;;;;;;5038488;28;20304;-72
2023/01/24 08:22:37;;;;;;;;;;;3.70;99.90;;;;;;5038825;28;19908;-72
2023/01/24 08:25:03;;;;;;;;;;;3.60;99.90;;;;;;5056832;28;19956;-72
2023/01/24 08:27:28;;;;;;;;;;;3.70;99.90;;;;;;5039291;28;19927;-70
2023/01/24 08:33:01;;;;;;;;;;;3.80;99.90;;;;;;5056195;28;19961;-69
2023/01/24 08:35:26;;;;;;;;;;;3.90;99.90;;;;;;5038209;28;19909;-70
2023/01/24 08:37:52;;;;;;;;;;;3.80;99.90;;;;;;5037194;28;20408;-70
2023/01/24 08:40:18;;;;;;;;;;;3.80;99.90;;;;;;5056175;28;19916;-70
2023/01/24 08:42:44;;;;;;;;;;;3.80;99.90;;;;;;5055462;28;21285;-70
2023/01/24 08:45:09;;;;;;;;;;;3.90;99.90;;;;;;5055665;28;19909;-70
2023/01/24 08:47:35;;;;;;;;;;;3.90;99.90;;;;;;5055598;28;19932;-70
2023/01/24 08:50:00;;;;;;;;;;;3.80;99.90;;;;;;5055719;28;19909;-69
2023/01/24 08:52:26;;;;;;;;;;;3.80;99.90;;;;;;5055667;28;19909;-70
2023/01/24 08:54:51;;;;;;;;;;;3.80;99.90;;;;;;5055700;28;20277;-69
2023/01/24 08:57:17;;;;;;;;;;;3.80;99.90;;;;;;5055635;28;19913;-69
2023/01/24 08:59:42;;;;;;;;;;;3.80;99.90;;;;;;5055636;28;19963;-69
2023/01/24 09:02:12;;;;;;;;;;;3.90;99.90;;;;;;5037639;28;20277;-69
2023/01/24 09:04:37;;;;;;;;;;;3.90;99.90;;;;;;5055224;28;19909;-70
2023/01/24 09:07:03;;;;;;;;;;;3.90;99.90;;;;;;5055534;28;20288;-70
2023/01/24 09:09:28;;;;;;;;;;;3.90;99.90;;;;;;5055723;28;19916;-70
2023/01/24 09:11:54;;;;;;;;;;;3.90;99.90;;;;;;5037834;28;19916;-70
2023/01/24 09:14:19;;;;;;;;;;;3.90;99.90;;;;;;5038109;28;19909;-70
2023/01/24 09:16:45;;;;;;;;;;;3.90;99.90;;;;;;5055201;28;19971;-70
2023/01/24 09:19:11;;;;;;;;;;;3.90;99.90;;;;;;5055080;28;19920;-70
2023/01/24 09:21:36;;;;;;;;;;;4.00;99.90;;;;;;5037797;28;19948;-70
2023/01/24 09:24:02;;;;;;;;;;;3.90;99.90;;;;;;5037530;28;19908;-69
2023/01/24 09:26:27;;;;;;;;;;;4.00;99.90;;;;;;5055283;28;19924;-69
2023/01/24 09:28:53;;;;;;;;;;;4.00;99.90;;;;;;5037117;28;20174;-70
2023/01/24 09:31:18;;;;;;;;;;;3.90;99.90;;;;;;5058740;28;19908;-69
2023/01/24 09:33:43;;;;;;;;;;;4.00;99.90;;;;;;5060356;28;19939;-70
2023/01/24 09:36:09;;;;;;;;;;;3.90;99.90;;;;;;5060916;28;19919;-71
2023/01/24 09:38:34;;;;;;;;;;;4.00;99.90;;;;;;5056490;28;19920;-70
2023/01/24 09:41:06;;;;;;;;;;;4.00;99.90;;;;;;5055594;28;19909;-71
2023/01/24 09:43:40;;;;;;;;;;;4.00;99.90;;;;;;5055263;28;19909;-70
2023/01/24 09:46:13;;;;;;;;;;;4.00;99.90;;;;;;5039157;28;20397;-71
2023/01/24 09:48:39;;;;;;;;;;;4.00;99.90;;;;;;5061958;28;19909;-71
2023/01/24 09:51:06;;;;;;;;;;;4.00;99.90;;;;;;5038547;28;20020;-71
2023/01/24 09:53:41;;;;;;;;;;;4.10;99.90;;;;;;5036707;28;19959;-70
2023/01/24 09:56:11;;;;;;;;;;;4.10;99.90;;;;;;5036547;28;19909;-70
2023/01/24 09:58:43;;;;;;;;;;;4.10;99.90;;;;;;5055205;28;19913;-69
2023/01/24 10:01:10;;;;;;;;;;;4.10;99.90;;;;;;5054526;28;19909;-70
2023/01/24 10:03:36;;;;;;;;;;;4.10;99.90;;;;;;5036311;28;19908;-69
2023/01/24 10:06:23;;;;;;;;;;;4.20;99.90;;;;;;5054658;28;19991;-71
2023/01/24 10:09:07;;;;;;;;;;;4.10;99.90;;;;;;5036138;28;19909;-70
2023/01/24 10:11:39;;;;;;;;;;;4.10;99.90;;;;;;5036379;28;19909;-71
2023/01/24 10:14:04;;;;;;;;;;;4.00;99.90;;;;;;5054145;28;19912;-70
2023/01/24 10:16:53;;;;;;;;;;;4.00;99.90;;;;;;5054179;28;19913;-70
2023/01/24 10:19:19;;;;;;;;;;;4.00;99.90;;;;;;5054734;28;19913;-70
2023/01/24 10:21:58;;;;;;;;;;;4.00;99.90;;;;;;5036257;28;21378;-70
2023/01/24 10:24:26;;;;;;;;;;;4.00;99.90;;;;;;5053772;28;20262;-71
2023/01/24 10:26:51;;;;;;;;;;;4.10;99.90;;;;;;5035980;28;20000;-70
2023/01/24 10:29:17;;;;;;;;;;;4.20;99.90;;;;;;5054079;28;20357;-70
2023/01/24 10:31:49;;;;;;;;;;;4.20;99.90;;;;;;5036155;28;19908;-70
2023/01/24 10:34:29;;;;;;;;;;;4.30;99.90;;;;;;5036016;28;19913;-70
2023/01/24 10:36:58;;;;;;;;;;;4.20;99.90;;;;;;5053858;28;19909;-71
2023/01/24 10:39:24;;;;;;;;;;;4.30;99.90;;;;;;5053518;28;20008;-70
2023/01/24 10:41:50;;;;;;;;;;;4.30;99.90;;;;;;5053868;28;19963;-70
2023/01/24 10:44:38;;;;;;;;;;;4.30;99.90;;;;;;5053606;28;19909;-70
2023/01/24 10:47:18;;;;;;;;;;;4.30;99.90;;;;;;5026106;28;19962;-71
2023/01/24 10:49:50;;;;;;;;;;;4.30;99.90;;;;;;5053560;28;19920;-70
2023/01/24 10:52:17;;;;;;;;;;;4.30;99.90;;;;;;5053483;28;20304;-70
2023/01/24 10:54:42;;;;;;;;;;;4.20;99.90;;;;;;5035188;28;19925;-70
2023/01/24 10:57:17;;;;;;;;;;;4.20;99.90;;;;;;5053320;28;19920;-70
2023/01/24 10:59:42;;;;;;;;;;;4.30;99.90;;;;;;5053358;28;19909;-70
2023/01/24 11:02:18;;;;;;;;;;;4.30;99.90;;;;;;5054112;28;20380;-71
2023/01/24 11:04:44;;;;;;;;;;;4.40;99.90;;;;;;5053690;28;19982;-70
2023/01/24 11:07:23;;;;;;;;;;;4.40;99.90;;;;;;5035423;28;20365;-70
2023/01/24 11:09:48;;;;;;;;;;;4.50;99.90;;;;;;5053404;28;19998;-70
2023/01/24 11:12:14;;;;;;;;;;;4.50;99.90;;;;;;5035582;28;19909;-70
2023/01/24 11:14:40;;;;;;;;;;;4.50;99.90;;;;;;5054355;28;19916;-70
2023/01/24 11:17:25;;;;;;;;;;;4.60;99.90;;;;;;5035413;28;20003;-70
2023/01/24 11:19:57;;;;;;;;;;;4.60;99.90;;;;;;5054705;28;19977;-70
2023/01/24 11:22:23;;;;;;;;;;;4.50;99.90;;;;;;5055061;28;19961;-71
2023/01/24 11:24:49;;;;;;;;;;;4.40;99.90;;;;;;5054195;28;19917;-71
2023/01/24 11:27:15;;;;;;;;;;;4.50;99.90;;;;;;5053988;28;19917;-70
2023/01/24 11:29:40;;;;;;;;;;;4.60;99.90;;;;;;5034773;28;19949;-71
2023/01/24 11:32:31;;;;;;;;;;;4.60;99.90;;;;;;5053186;28;19912;-70
2023/01/24 11:35:08;;;;;;;;;;;4.60;99.90;;;;;;5053309;28;19974;-70
2023/01/24 11:37:40;;;;;;;;;;;4.70;99.90;;;;;;5053073;28;20296;-71
2023/01/24 11:40:17;;;;;;;;;;;4.60;99.90;;;;;;5052947;28;19909;-70
2023/01/24 11:42:46;;;;;;;;;;;4.50;99.90;;;;;;5035290;28;19972;-69
2023/01/24 11:45:17;;;;;;;;;;;4.60;99.90;;;;;;5034661;28;20004;-69
2023/01/24 11:47:47;;;;;;;;;;;4.60;99.90;;;;;;5052746;28;20257;-70
2023/01/24 11:50:16;;;;;;;;;;;4.60;99.90;;;;;;5052800;28;19916;-70
2023/01/24 11:52:50;;;;;;;;;;;4.70;99.90;;;;;;5034313;28;19908;-69
2023/01/24 11:55:15;;;;;;;;;;;4.80;99.90;;;;;;5036271;28;19996;-70
2023/01/24 11:57:48;;;;;;;;;;;4.80;99.90;;;;;;5056346;28;20016;-69
2023/01/24 12:00:16;;;;;;;;;;;4.90;99.90;;;;;;5038261;28;19912;-70
2023/01/24 12:02:51;;;;;;;;;;;5.00;99.90;;;;;;5040392;28;19909;-71
2023/01/24 12:05:23;;;;;;;;;;;5.00;99.90;;;;;;5056740;28;19912;-70
2023/01/24 12:08:06;;;;;;;;;;;5.00;99.90;;;;;;5056723;28;20357;-70
2023/01/24 12:10:41;;;;;;;;;;;5.00;99.90;;;;;;5056445;28;19909;-72
2023/01/24 12:13:21;;;;;;;;;;;5.00;99.90;;;;;;5038253;28;19916;-72
2023/01/24 12:15:53;;;;;;;;;;;5.00;99.90;;;;;;5057227;28;20035;-72
2023/01/24 12:18:26;;;;;;;;;;;5.10;99.90;;;;;;5057497;28;19912;-70
2023/01/24 12:20:55;;;;;;;;;;;4.90;99.90;;;;;;5058365;28;19950;-70
2023/01/24 12:23:53;;;;;;;;;;;4.90;99.90;;;;;;5065660;28;19909;-71
2023/01/24 12:26:24;;;;;;;;;;;4.80;99.90;;;;;;5013988;28;19916;-71
2023/01/24 12:28:51;;;;;;;;;;;4.80;99.90;;;;;;5058364;28;19908;-70
2023/01/24 12:31:20;;;;;;;;;;;4.80;99.90;;;;;;5060616;28;19967;-71
2023/01/24 12:33:50;;;;;;;;;;;5.00;99.90;;;;;;5057741;28;19959;-71
2023/01/24 12:36:22;;;;;;;;;;;5.00;99.90;;;;;;5038184;28;19920;-70
2023/01/24 12:38:51;;;;;;;;;;;5.10;99.90;;;;;;5038517;28;20296;-71
2023/01/24 12:41:17;;;;;;;;;;;5.20;99.90;;;;;;5038478;28;19995;-70
2023/01/24 12:44:09;;;;;;;;;;;5.10;99.90;;;;;;5055218;28;19956;-71
2023/01/24 12:46:39;;;;;;;;;;;5.00;99.90;;;;;;5056098;28;20280;-70
2023/01/24 12:49:23;;;;;;;;;;;4.90;99.90;;;;;;5056355;28;19913;-70
2023/01/24 12:52:12;;;;;;;;;;;4.80;99.90;;;;;;5037932;28;19943;-71
2023/01/24 12:54:48;;;;;;;;;;;4.80;99.90;;;;;;5025135;28;20311;-71
2023/01/24 12:57:14;;;;;;;;;;;4.80;99.90;;;;;;5053843;28;19920;-71
2023/01/24 12:59:39;;;;;;;;;;;5.00;99.90;;;;;;5071005;28;20339;-70
2023/01/24 13:02:04;;;;;;;;;;;4.90;99.90;;;;;;5056144;28;19909;-71
2023/01/24 13:04:49;;;;;;;;;;;5.00;99.90;;;;;;5065553;28;19909;-70
2023/01/24 13:07:17;;;;;;;;;;;4.90;99.90;;;;;;5016551;28;19913;-70
2023/01/24 13:09:52;;;;;;;;;;;4.90;99.90;;;;;;5017937;28;20000;-70
2023/01/24 13:12:20;;;;;;;;;;;4.90;99.90;;;;;;5036055;28;19996;-70
2023/01/24 13:14:49;;;;;;;;;;;4.90;99.90;;;;;;5037656;28;19917;-69
2023/01/24 13:17:14;;;;;;;;;;;4.90;99.90;;;;;;5018216;28;20285;-70
2023/01/24 13:19:40;;;;;;;;;;;4.90;99.90;;;;;;5036921;28;19909;-70
2023/01/24 13:22:16;;;;;;;;;;;4.80;99.90;;;;;;5017740;28;19951;-70
2023/01/24 13:25:14;;;;;;;;;;;4.80;99.90;;;;;;5035484;28;19909;-71
2023/01/24 13:27:39;;;;;;;;;;;4.90;99.90;;;;;;5018701;28;19917;-72
2023/01/24 13:30:15;;;;;;;;;;;4.80;99.90;;;;;;5035663;28;19913;-71
2023/01/24 13:32:40;;;;;;;;;;;4.80;99.90;;;;;;5071043;28;19967;-72
2023/01/24 13:35:15;;;;;;;;;;;4.80;99.90;;;;;;5055904;28;20323;-71
2023/01/24 13:37:40;;;;;;;;;;;4.90;99.90;;;;;;5055532;28;19917;-72
2023/01/24 13:40:06;;;;;;;;;;;4.90;99.90;;;;;;5056423;28;19916;-72
2023/01/24 13:42:38;;;;;;;;;;;4.80;99.90;;;;;;5041477;28;19994;-72
2023/01/24 13:45:22;;;;;;;;;;;4.80;99.90;;;;;;5043007;28;19909;-72
2023/01/24 13:47:48;;;;;;;;;;;4.70;99.90;;;;;;5077364;28;19919;-72
2023/01/24 13:50:14;;;;;;;;;;;4.70;99.90;;;;;;5062539;28;19913;-72
2023/01/24 13:52:43;;;;;;;;;;;4.70;99.90;;;;;;5044594;28;19916;-72
2023/01/24 13:55:22;;;;;;;;;;;4.60;99.90;;;;;;5040758;28;19915;-72
2023/01/24 13:57:57;;;;;;;;;;;4.60;99.90;;;;;;5037904;28;19919;-71
2023/01/24 14:00:24;;;;;;;;;;;4.70;99.90;;;;;;5037411;28;19978;-74
2023/01/24 14:02:50;;;;;;;;;;;4.60;99.90;;;;;;5039777;28;19908;-69
2023/01/24 14:05:28;;;;;;;;;;;4.60;99.90;;;;;;5047312;28;20304;-73
2023/01/24 14:07:55;;;;;;;;;;;4.60;99.90;;;;;;5043281;28;20345;-72
2023/01/24 14:10:31;;;;;;;;;;;4.70;99.90;;;;;;5049023;28;19989;-73
2023/01/24 14:12:57;;;;;;;;;;;4.70;99.90;;;;;;5053818;28;19915;-72
2023/01/24 14:15:36;;;;;;;;;;;4.60;99.90;;;;;;5053074;28;19909;-70
2023/01/24 14:18:01;;;;;;;;;;;4.60;99.90;;;;;;5052585;28;20292;-69
2023/01/24 14:20:33;;;;;;;;;;;4.60;99.90;;;;;;5056196;28;19912;-68
2023/01/24 14:22:59;;;;;;;;;;;4.60;99.90;;;;;;5045466;28;19909;-70
2023/01/24 14:25:37;;;;;;;;;;;4.60;99.90;;;;;;5039747;28;20100;-72
2023/01/24 14:28:16;;;;;;;;;;;4.60;99.90;;;;;;5082700;22;20384;-70
2023/01/24 14:30:47;;;;;;;;;;;4.60;99.90;;;;;;5053871;28;20297;-72
2023/01/24 14:33:15;;;;;;;;;;;4.70;99.90;;;;;;5071793;28;19915;-74
2023/01/24 14:36:14;;;;;;;;;;;4.70;99.90;;;;;;5070935;28;19972;-72
2023/01/24 14:38:39;;;;;;;;;;;4.70;99.90;;;;;;4988892;28;19917;-69
2023/01/24 14:41:05;;;;;;;;;;;4.70;99.90;;;;;;5036103;28;20841;-71
2023/01/24 14:43:40;;;;;;;;;;;4.80;99.90;;;;;;5033475;28;19916;-71
2023/01/24 14:46:09;;;;;;;;;;;4.90;99.90;;;;;;5034011;28;19909;-71
2023/01/24 14:48:38;;;;;;;;;;;4.90;99.90;;;;;;5034744;28;19909;-72
2023/01/24 14:51:06;;;;;;;;;;;4.90;99.90;;;;;;5037803;28;19936;-71
2023/01/24 14:53:33;;;;;;;;;;;4.90;99.90;;;;;;5036568;28;19959;-70
2023/01/24 14:56:12;;;;;;;;;;;4.80;99.90;;;;;;5047101;28;19909;-72
2023/01/24 14:58:38;;;;;;;;;;;4.90;99.90;;;;;;5037220;28;19999;-71
2023/01/24 15:01:20;;;;;;;;;;;4.90;99.90;;;;;;5054116;28;19985;-72
2023/01/24 15:03:46;;;;;;;;;;;4.80;99.90;;;;;;5039186;28;20329;-72
2023/01/24 15:06:16;;;;;;;;;;;4.90;99.90;;;;;;5056584;28;19908;-72
2023/01/24 15:08:42;;;;;;;;;;;4.90;99.90;;;;;;5056908;28;19909;-72
2023/01/24 15:11:17;;;;;;;;;;;4.70;99.90;;;;;;5059484;28;20070;-71
2023/01/24 15:13:44;;;;;;;;;;;4.70;99.90;;;;;;5035667;28;19917;-69
2023/01/24 15:16:17;;;;;;;;;;;4.70;99.90;;;;;;5019960;28;19918;-71
2023/01/24 15:18:43;;;;;;;;;;;4.80;99.90;;;;;;5047134;28;19971;-74
2023/01/24 15:21:16;;;;;;;;;;;4.70;99.90;;;;;;5035696;28;19916;-72